sensor_id;sensor_type;location;lat;lon;timestamp;P1;durP1;ratioP1;P2;durP2;ratioP2
9716;SDS011;4897;43.570;27.832;2023-04-01T00:01:24;33.83;;;19.30;;
9716;SDS011;4897;43.570;27.832;2023-04-01T00:03:51;31.13;;;19.73;;
9716;SDS011;4897;43.570;27.832;2023-04-01T00:06:19;31.92;;;20.95;;
9716;SDS011;4897;43.570;27.832;2023-04-01T00:08:46;35.22;;;21.33;;
9716;SDS011;4897;43.570;27.832;2023-04-01T00:11:13;35.13;;;22.08;;
9716;SDS011;4897;43.570;27.832;2023-04-01T00:13:41;39.95;;;24.95;;
9716;SDS011;4897;43.570;27.832;2023-04-01T00:16:10;34.58;;;22.67;;
9716;SDS011;4897;43.570;27.832;2023-04-01T00:18:37;44.22;;;28.20;;
9716;SDS011;4897;43.570;27.832;2023-04-01T00:21:04;46.53;;;28.45;;
9716;SDS011;4897;43.570;27.832;2023-04-01T00:23:31;43.03;;;28.63;;
9716;SDS011;4897;43.570;27.832;2023-04-01T00:25:59;45.17;;;25.67;;
9716;SDS011;4897;43.570;27.832;2023-04-01T00:28:26;46.35;;;28.13;;
9716;SDS011;4897;43.570;27.832;2023-04-01T00:30:53;57.38;;;31.63;;
9716;SDS011;4897;43.570;27.832;2023-04-01T00:33:22;49.00;;;28.83;;
9716;SDS011;4897;43.570;27.832;2023-04-01T00:35:49;41.92;;;25.90;;
9716;SDS011;4897;43.570;27.832;2023-04-01T00:38:15;40.42;;;24.10;;
9716;SDS011;4897;43.570;27.832;2023-04-01T00:40:45;35.15;;;22.05;;
9716;SDS011;4897;43.570;27.832;2023-04-01T00:43:13;38.88;;;24.15;;
9716;SDS011;4897;43.570;27.832;2023-04-01T00:45:43;43.45;;;25.02;;
9716;SDS011;4897;43.570;27.832;2023-04-01T00:48:13;43.85;;;25.05;;
9716;SDS011;4897;43.570;27.832;2023-04-01T00:50:44;41.40;;;23.10;;
9716;SDS011;4897;43.570;27.832;2023-04-01T00:53:14;41.65;;;23.00;;
9716;SDS011;4897;43.570;27.832;2023-04-01T00:55:45;37.30;;;22.33;;
9716;SDS011;4897;43.570;27.832;2023-04-01T00:58:17;44.58;;;23.25;;
9716;SDS011;4897;43.570;27.832;2023-04-01T01:00:47;46.92;;;24.33;;
9716;SDS011;4897;43.570;27.832;2023-04-01T01:03:17;43.80;;;24.60;;
9716;SDS011;4897;43.570;27.832;2023-04-01T01:08:37;48.38;;;26.75;;
9716;SDS011;4897;43.570;27.832;2023-04-01T01:11:12;49.08;;;26.42;;
9716;SDS011;4897;43.570;27.832;2023-04-01T01:13:46;40.60;;;24.30;;
9716;SDS011;4897;43.570;27.832;2023-04-01T01:16:21;42.67;;;24.85;;
9716;SDS011;4897;43.570;27.832;2023-04-01T01:18:54;40.40;;;23.50;;
9716;SDS011;4897;43.570;27.832;2023-04-01T01:24:28;37.80;;;21.70;;
9716;SDS011;4897;43.570;27.832;2023-04-01T01:27:08;34.28;;;22.02;;
9716;SDS011;4897;43.570;27.832;2023-04-01T01:35:45;35.38;;;22.90;;
9716;SDS011;4897;43.570;27.832;2023-04-01T01:38:15;41.47;;;22.27;;
9716;SDS011;4897;43.570;27.832;2023-04-01T01:40:45;37.67;;;20.55;;
9716;SDS011;4897;43.570;27.832;2023-04-01T01:43:17;32.03;;;21.00;;
9716;SDS011;4897;43.570;27.832;2023-04-01T01:45:50;36.55;;;20.38;;
9716;SDS011;4897;43.570;27.832;2023-04-01T01:48:20;35.35;;;21.83;;
9716;SDS011;4897;43.570;27.832;2023-04-01T01:50:51;30.50;;;20.27;;
9716;SDS011;4897;43.570;27.832;2023-04-01T01:53:19;28.90;;;18.83;;
9716;SDS011;4897;43.570;27.832;2023-04-01T01:55:46;38.17;;;21.77;;
9716;SDS011;4897;43.570;27.832;2023-04-01T01:58:15;31.25;;;19.27;;
9716;SDS011;4897;43.570;27.832;2023-04-01T02:00:44;29.33;;;18.83;;
9716;SDS011;4897;43.570;27.832;2023-04-01T02:03:16;33.33;;;19.45;;
9716;SDS011;4897;43.570;27.832;2023-04-01T02:05:46;26.98;;;16.95;;
9716;SDS011;4897;43.570;27.832;2023-04-01T02:08:15;25.75;;;15.85;;
9716;SDS011;4897;43.570;27.832;2023-04-01T02:10:47;21.95;;;13.70;;
9716;SDS011;4897;43.570;27.832;2023-04-01T02:13:21;19.58;;;12.27;;
9716;SDS011;4897;43.570;27.832;2023-04-01T02:15:56;21.05;;;13.13;;
9716;SDS011;4897;43.570;27.832;2023-04-01T02:18:28;25.45;;;12.50;;
9716;SDS011;4897;43.570;27.832;2023-04-01T02:21:02;21.02;;;13.00;;
9716;SDS011;4897;43.570;27.832;2023-04-01T02:23:33;34.47;;;17.80;;
9716;SDS011;4897;43.570;27.832;2023-04-01T02:26:05;28.90;;;16.13;;
9716;SDS011;4897;43.570;27.832;2023-04-01T02:28:34;28.88;;;17.08;;
9716;SDS011;4897;43.570;27.832;2023-04-01T02:31:04;24.85;;;15.45;;
9716;SDS011;4897;43.570;27.832;2023-04-01T02:33:33;27.05;;;16.92;;
9716;SDS011;4897;43.570;27.832;2023-04-01T02:36:00;23.50;;;14.95;;
9716;SDS011;4897;43.570;27.832;2023-04-01T02:38:27;26.10;;;15.80;;
9716;SDS011;4897;43.570;27.832;2023-04-01T02:40:57;24.73;;;14.98;;
9716;SDS011;4897;43.570;27.832;2023-04-01T02:43:26;27.70;;;14.63;;
9716;SDS011;4897;43.570;27.832;2023-04-01T02:45:53;27.73;;;16.58;;
9716;SDS011;4897;43.570;27.832;2023-04-01T02:48:20;28.98;;;17.48;;
9716;SDS011;4897;43.570;27.832;2023-04-01T02:50:48;25.48;;;14.38;;
9716;SDS011;4897;43.570;27.832;2023-04-01T02:53:15;17.38;;;11.05;;
9716;SDS011;4897;43.570;27.832;2023-04-01T02:55:43;12.32;;;9.52;;
9716;SDS011;4897;43.570;27.832;2023-04-01T02:58:11;12.07;;;7.78;;
9716;SDS011;4897;43.570;27.832;2023-04-01T03:00:38;26.23;;;17.02;;
9716;SDS011;4897;43.570;27.832;2023-04-01T03:03:05;29.67;;;19.92;;
9716;SDS011;4897;43.570;27.832;2023-04-01T03:05:34;27.00;;;17.83;;
9716;SDS011;4897;43.570;27.832;2023-04-01T03:08:00;16.52;;;10.07;;
9716;SDS011;4897;43.570;27.832;2023-04-01T03:10:27;13.07;;;7.85;;
9716;SDS011;4897;43.570;27.832;2023-04-01T03:12:55;11.23;;;7.07;;
9716;SDS011;4897;43.570;27.832;2023-04-01T03:15:23;11.43;;;6.55;;
9716;SDS011;4897;43.570;27.832;2023-04-01T03:17:53;15.20;;;7.25;;
9716;SDS011;4897;43.570;27.832;2023-04-01T03:20:19;10.98;;;7.28;;
9716;SDS011;4897;43.570;27.832;2023-04-01T03:22:46;12.43;;;7.13;;
9716;SDS011;4897;43.570;27.832;2023-04-01T03:25:13;15.52;;;10.20;;
9716;SDS011;4897;43.570;27.832;2023-04-01T03:27:40;21.73;;;13.15;;
9716;SDS011;4897;43.570;27.832;2023-04-01T03:30:07;22.30;;;14.45;;
9716;SDS011;4897;43.570;27.832;2023-04-01T03:32:37;30.02;;;17.83;;
9716;SDS011;4897;43.570;27.832;2023-04-01T03:35:04;20.48;;;12.77;;
9716;SDS011;4897;43.570;27.832;2023-04-01T03:37:35;22.08;;;13.48;;
9716;SDS011;4897;43.570;27.832;2023-04-01T03:40:02;17.40;;;11.30;;
9716;SDS011;4897;43.570;27.832;2023-04-01T03:42:30;22.65;;;11.27;;
9716;SDS011;4897;43.570;27.832;2023-04-01T03:44:57;21.08;;;14.43;;
9716;SDS011;4897;43.570;27.832;2023-04-01T03:47:24;33.00;;;20.63;;
9716;SDS011;4897;43.570;27.832;2023-04-01T03:49:52;24.20;;;12.82;;
9716;SDS011;4897;43.570;27.832;2023-04-01T03:52:19;20.73;;;12.98;;
9716;SDS011;4897;43.570;27.832;2023-04-01T03:54:47;20.17;;;11.65;;
9716;SDS011;4897;43.570;27.832;2023-04-01T03:57:13;19.25;;;12.30;;
9716;SDS011;4897;43.570;27.832;2023-04-01T03:59:40;18.02;;;9.60;;
9716;SDS011;4897;43.570;27.832;2023-04-01T04:02:07;15.32;;;9.60;;
9716;SDS011;4897;43.570;27.832;2023-04-01T04:04:34;14.15;;;9.15;;
9716;SDS011;4897;43.570;27.832;2023-04-01T04:07:03;15.95;;;9.18;;
9716;SDS011;4897;43.570;27.832;2023-04-01T04:09:30;17.17;;;10.90;;
9716;SDS011;4897;43.570;27.832;2023-04-01T04:11:59;14.27;;;9.90;;
9716;SDS011;4897;43.570;27.832;2023-04-01T04:14:30;14.52;;;9.35;;
9716;SDS011;4897;43.570;27.832;2023-04-01T04:16:57;16.08;;;9.20;;
9716;SDS011;4897;43.570;27.832;2023-04-01T04:19:30;14.68;;;8.88;;
9716;SDS011;4897;43.570;27.832;2023-04-01T04:21:58;20.52;;;8.82;;
9716;SDS011;4897;43.570;27.832;2023-04-01T04:24:27;32.15;;;19.88;;
9716;SDS011;4897;43.570;27.832;2023-04-01T04:26:54;23.90;;;15.48;;
9716;SDS011;4897;43.570;27.832;2023-04-01T04:29:21;21.70;;;9.90;;
9716;SDS011;4897;43.570;27.832;2023-04-01T04:31:48;14.10;;;9.07;;
9716;SDS011;4897;43.570;27.832;2023-04-01T04:34:15;14.23;;;8.95;;
9716;SDS011;4897;43.570;27.832;2023-04-01T04:36:43;25.23;;;15.63;;
9716;SDS011;4897;43.570;27.832;2023-04-01T04:39:10;35.90;;;21.13;;
9716;SDS011;4897;43.570;27.832;2023-04-01T04:41:39;32.42;;;20.05;;
9716;SDS011;4897;43.570;27.832;2023-04-01T04:44:06;36.70;;;21.95;;
9716;SDS011;4897;43.570;27.832;2023-04-01T04:46:36;39.08;;;22.10;;
9716;SDS011;4897;43.570;27.832;2023-04-01T04:49:04;34.22;;;20.58;;
9716;SDS011;4897;43.570;27.832;2023-04-01T04:51:31;25.75;;;17.38;;
9716;SDS011;4897;43.570;27.832;2023-04-01T04:53:59;20.70;;;13.43;;
9716;SDS011;4897;43.570;27.832;2023-04-01T04:56:25;22.80;;;12.02;;
9716;SDS011;4897;43.570;27.832;2023-04-01T04:58:54;18.98;;;10.85;;
9716;SDS011;4897;43.570;27.832;2023-04-01T05:01:21;9.82;;;6.55;;
9716;SDS011;4897;43.570;27.832;2023-04-01T05:03:48;13.57;;;5.35;;
9716;SDS011;4897;43.570;27.832;2023-04-01T05:06:15;8.20;;;5.28;;
9716;SDS011;4897;43.570;27.832;2023-04-01T05:08:43;9.65;;;5.20;;
9716;SDS011;4897;43.570;27.832;2023-04-01T05:11:12;6.57;;;4.43;;
9716;SDS011;4897;43.570;27.832;2023-04-01T05:13:41;8.70;;;4.50;;
9716;SDS011;4897;43.570;27.832;2023-04-01T05:16:10;9.65;;;4.68;;
9716;SDS011;4897;43.570;27.832;2023-04-01T05:18:38;9.32;;;4.63;;
9716;SDS011;4897;43.570;27.832;2023-04-01T05:21:06;9.98;;;4.28;;
9716;SDS011;4897;43.570;27.832;2023-04-01T05:23:34;7.18;;;3.90;;
9716;SDS011;4897;43.570;27.832;2023-04-01T05:26:02;9.82;;;4.13;;
9716;SDS011;4897;43.570;27.832;2023-04-01T05:28:30;7.75;;;4.03;;
9716;SDS011;4897;43.570;27.832;2023-04-01T05:30:58;7.05;;;3.70;;
9716;SDS011;4897;43.570;27.832;2023-04-01T05:33:29;6.03;;;3.42;;
9716;SDS011;4897;43.570;27.832;2023-04-01T05:35:57;6.57;;;3.83;;
9716;SDS011;4897;43.570;27.832;2023-04-01T05:38:32;6.40;;;3.10;;
9716;SDS011;4897;43.570;27.832;2023-04-01T05:41:00;7.32;;;3.17;;
9716;SDS011;4897;43.570;27.832;2023-04-01T05:43:27;7.72;;;3.67;;
9716;SDS011;4897;43.570;27.832;2023-04-01T05:45:55;3.15;;;2.60;;
9716;SDS011;4897;43.570;27.832;2023-04-01T05:48:21;4.80;;;2.75;;
9716;SDS011;4897;43.570;27.832;2023-04-01T05:50:50;8.55;;;3.50;;
9716;SDS011;4897;43.570;27.832;2023-04-01T05:53:17;6.88;;;3.53;;
9716;SDS011;4897;43.570;27.832;2023-04-01T05:55:44;8.98;;;3.40;;
9716;SDS011;4897;43.570;27.832;2023-04-01T05:58:13;5.53;;;3.30;;
9716;SDS011;4897;43.570;27.832;2023-04-01T06:00:40;8.73;;;3.55;;
9716;SDS011;4897;43.570;27.832;2023-04-01T06:03:07;10.77;;;3.85;;
9716;SDS011;4897;43.570;27.832;2023-04-01T06:05:37;5.80;;;3.20;;
9716;SDS011;4897;43.570;27.832;2023-04-01T06:08:10;5.97;;;3.40;;
9716;SDS011;4897;43.570;27.832;2023-04-01T06:10:49;6.97;;;2.97;;
9716;SDS011;4897;43.570;27.832;2023-04-01T06:13:27;3.95;;;2.72;;
9716;SDS011;4897;43.570;27.832;2023-04-01T06:16:07;5.22;;;2.47;;
9716;SDS011;4897;43.570;27.832;2023-04-01T06:18:51;5.90;;;2.92;;
9716;SDS011;4897;43.570;27.832;2023-04-01T06:21:33;5.60;;;2.92;;
9716;SDS011;4897;43.570;27.832;2023-04-01T06:24:17;6.53;;;2.67;;
9716;SDS011;4897;43.570;27.832;2023-04-01T06:26:55;5.22;;;2.53;;
9716;SDS011;4897;43.570;27.832;2023-04-01T06:29:38;5.82;;;2.58;;
9716;SDS011;4897;43.570;27.832;2023-04-01T06:32:20;9.85;;;4.15;;
9716;SDS011;4897;43.570;27.832;2023-04-01T06:35:03;9.00;;;4.25;;
9716;SDS011;4897;43.570;27.832;2023-04-01T06:37:55;9.70;;;5.00;;
9716;SDS011;4897;43.570;27.832;2023-04-01T06:40:55;6.38;;;3.50;;
9716;SDS011;4897;43.570;27.832;2023-04-01T06:43:44;6.90;;;2.83;;
9716;SDS011;4897;43.570;27.832;2023-04-01T06:46:23;4.57;;;2.63;;
9716;SDS011;4897;43.570;27.832;2023-04-01T06:49:02;3.30;;;2.20;;
9716;SDS011;4897;43.570;27.832;2023-04-01T06:51:39;7.03;;;3.13;;
9716;SDS011;4897;43.570;27.832;2023-04-01T06:54:17;8.07;;;2.70;;
9716;SDS011;4897;43.570;27.832;2023-04-01T06:56:53;6.45;;;2.67;;
9716;SDS011;4897;43.570;27.832;2023-04-01T06:59:27;6.00;;;2.63;;
9716;SDS011;4897;43.570;27.832;2023-04-01T07:01:57;10.32;;;2.50;;
9716;SDS011;4897;43.570;27.832;2023-04-01T07:04:28;7.25;;;2.70;;
9716;SDS011;4897;43.570;27.832;2023-04-01T07:06:58;4.57;;;2.55;;
9716;SDS011;4897;43.570;27.832;2023-04-01T07:09:28;6.38;;;2.65;;
9716;SDS011;4897;43.570;27.832;2023-04-01T07:12:01;9.30;;;4.10;;
9716;SDS011;4897;43.570;27.832;2023-04-01T07:14:36;7.70;;;3.30;;
9716;SDS011;4897;43.570;27.832;2023-04-01T07:17:09;7.28;;;2.55;;
9716;SDS011;4897;43.570;27.832;2023-04-01T07:19:42;5.05;;;2.53;;
9716;SDS011;4897;43.570;27.832;2023-04-01T07:22:15;3.92;;;2.40;;
9716;SDS011;4897;43.570;27.832;2023-04-01T07:24:47;4.15;;;2.50;;
9716;SDS011;4897;43.570;27.832;2023-04-01T07:27:16;4.43;;;2.58;;
9716;SDS011;4897;43.570;27.832;2023-04-01T07:29:44;3.17;;;2.42;;
9716;SDS011;4897;43.570;27.832;2023-04-01T07:35:07;5.07;;;2.35;;
9716;SDS011;4897;43.570;27.832;2023-04-01T07:37:45;6.18;;;2.70;;
9716;SDS011;4897;43.570;27.832;2023-04-01T07:40:37;4.63;;;2.47;;
9716;SDS011;4897;43.570;27.832;2023-04-01T07:43:20;6.10;;;2.22;;
9716;SDS011;4897;43.570;27.832;2023-04-01T07:46:00;7.72;;;2.90;;
9716;SDS011;4897;43.570;27.832;2023-04-01T07:48:38;6.07;;;2.47;;
9716;SDS011;4897;43.570;27.832;2023-04-01T07:51:16;4.63;;;2.53;;
9716;SDS011;4897;43.570;27.832;2023-04-01T07:53:48;5.05;;;2.50;;
9716;SDS011;4897;43.570;27.832;2023-04-01T07:56:23;6.22;;;2.78;;
9716;SDS011;4897;43.570;27.832;2023-04-01T07:58:58;7.00;;;2.28;;
9716;SDS011;4897;43.570;27.832;2023-04-01T08:01:35;11.40;;;2.58;;
9716;SDS011;4897;43.570;27.832;2023-04-01T08:04:17;3.92;;;2.05;;
9716;SDS011;4897;43.570;27.832;2023-04-01T08:06:52;5.28;;;2.40;;
9716;SDS011;4897;43.570;27.832;2023-04-01T08:09:28;4.00;;;1.90;;
9716;SDS011;4897;43.570;27.832;2023-04-01T08:12:04;4.10;;;2.22;;
9716;SDS011;4897;43.570;27.832;2023-04-01T08:14:44;5.80;;;2.00;;
9716;SDS011;4897;43.570;27.832;2023-04-01T08:17:20;3.88;;;2.28;;
9716;SDS011;4897;43.570;27.832;2023-04-01T08:19:57;10.32;;;2.47;;
9716;SDS011;4897;43.570;27.832;2023-04-01T08:22:35;4.43;;;1.85;;
9716;SDS011;4897;43.570;27.832;2023-04-01T08:25:09;4.18;;;2.33;;
9716;SDS011;4897;43.570;27.832;2023-04-01T08:27:41;7.25;;;1.88;;
9716;SDS011;4897;43.570;27.832;2023-04-01T08:30:17;5.78;;;2.45;;
9716;SDS011;4897;43.570;27.832;2023-04-01T08:32:47;5.53;;;2.03;;
9716;SDS011;4897;43.570;27.832;2023-04-01T08:35:21;5.53;;;2.45;;
9716;SDS011;4897;43.570;27.832;2023-04-01T08:37:54;3.60;;;2.20;;
9716;SDS011;4897;43.570;27.832;2023-04-01T08:40:35;9.95;;;2.22;;
9716;SDS011;4897;43.570;27.832;2023-04-01T08:43:15;8.63;;;2.70;;
9716;SDS011;4897;43.570;27.832;2023-04-01T08:46:04;7.78;;;2.47;;
9716;SDS011;4897;43.570;27.832;2023-04-01T08:54:40;5.55;;;2.30;;
9716;SDS011;4897;43.570;27.832;2023-04-01T08:57:20;4.75;;;2.80;;
9716;SDS011;4897;43.570;27.832;2023-04-01T09:00:05;5.57;;;2.90;;
9716;SDS011;4897;43.570;27.832;2023-04-01T09:05:55;6.93;;;2.10;;
9716;SDS011;4897;43.570;27.832;2023-04-01T09:08:42;5.05;;;2.58;;
9716;SDS011;4897;43.570;27.832;2023-04-01T09:11:21;5.45;;;2.38;;
9716;SDS011;4897;43.570;27.832;2023-04-01T09:14:11;6.22;;;2.70;;
9716;SDS011;4897;43.570;27.832;2023-04-01T09:17:05;8.52;;;2.65;;
9716;SDS011;4897;43.570;27.832;2023-04-01T09:19:54;5.68;;;2.33;;
9716;SDS011;4897;43.570;27.832;2023-04-01T09:22:38;6.65;;;2.63;;
9716;SDS011;4897;43.570;27.832;2023-04-01T09:25:22;4.60;;;2.40;;
9716;SDS011;4897;43.570;27.832;2023-04-01T09:27:56;5.65;;;2.53;;
9716;SDS011;4897;43.570;27.832;2023-04-01T09:36:38;7.68;;;2.95;;
9716;SDS011;4897;43.570;27.832;2023-04-01T09:39:17;5.70;;;2.97;;
9716;SDS011;4897;43.570;27.832;2023-04-01T09:41:59;4.65;;;2.40;;
9716;SDS011;4897;43.570;27.832;2023-04-01T09:44:43;7.40;;;2.60;;
9716;SDS011;4897;43.570;27.832;2023-04-01T09:47:21;8.13;;;3.10;;
9716;SDS011;4897;43.570;27.832;2023-04-01T09:50:23;7.82;;;2.95;;
9716;SDS011;4897;43.570;27.832;2023-04-01T09:53:13;5.43;;;2.50;;
9716;SDS011;4897;43.570;27.832;2023-04-01T09:59:09;9.13;;;2.97;;
9716;SDS011;4897;43.570;27.832;2023-04-01T10:08:08;4.03;;;2.33;;
9716;SDS011;4897;43.570;27.832;2023-04-01T10:11:09;6.20;;;2.80;;
9716;SDS011;4897;43.570;27.832;2023-04-01T10:17:04;10.80;;;3.22;;
9716;SDS011;4897;43.570;27.832;2023-04-01T10:20:04;7.68;;;3.10;;
9716;SDS011;4897;43.570;27.832;2023-04-01T10:25:54;3.80;;;2.53;;
9716;SDS011;4897;43.570;27.832;2023-04-01T10:28:52;8.15;;;3.15;;
9716;SDS011;4897;43.570;27.832;2023-04-01T10:31:58;7.15;;;3.15;;
9716;SDS011;4897;43.570;27.832;2023-04-01T10:38:11;3.45;;;2.42;;
9716;SDS011;4897;43.570;27.832;2023-04-01T10:41:10;4.25;;;2.90;;
9716;SDS011;4897;43.570;27.832;2023-04-01T10:44:11;6.00;;;2.78;;
9716;SDS011;4897;43.570;27.832;2023-04-01T10:50:20;4.60;;;2.80;;
9716;SDS011;4897;43.570;27.832;2023-04-01T10:52:59;4.93;;;2.63;;
9716;SDS011;4897;43.570;27.832;2023-04-01T10:59:08;6.38;;;3.15;;
9716;SDS011;4897;43.570;27.832;2023-04-01T11:17:15;4.38;;;2.60;;
9716;SDS011;4897;43.570;27.832;2023-04-01T11:20:07;7.45;;;2.75;;
9716;SDS011;4897;43.570;27.832;2023-04-01T11:23:01;6.25;;;2.20;;
9716;SDS011;4897;43.570;27.832;2023-04-01T11:28:48;4.07;;;2.30;;
9716;SDS011;4897;43.570;27.832;2023-04-01T11:31:37;7.00;;;2.15;;
9716;SDS011;4897;43.570;27.832;2023-04-01T11:34:22;6.00;;;2.40;;
9716;SDS011;4897;43.570;27.832;2023-04-01T11:37:06;3.65;;;2.10;;
9716;SDS011;4897;43.570;27.832;2023-04-01T11:39:50;5.18;;;2.10;;
9716;SDS011;4897;43.570;27.832;2023-04-01T11:42:28;5.88;;;2.13;;
9716;SDS011;4897;43.570;27.832;2023-04-01T11:45:10;3.40;;;2.13;;
9716;SDS011;4897;43.570;27.832;2023-04-01T11:47:59;4.88;;;1.88;;
9716;SDS011;4897;43.570;27.832;2023-04-01T11:50:44;3.25;;;2.13;;
9716;SDS011;4897;43.570;27.832;2023-04-01T11:53:35;4.28;;;2.53;;
9716;SDS011;4897;43.570;27.832;2023-04-01T11:56:13;12.07;;;2.92;;
9716;SDS011;4897;43.570;27.832;2023-04-01T11:58:54;6.32;;;2.50;;
9716;SDS011;4897;43.570;27.832;2023-04-01T12:01:38;6.20;;;2.75;;
9716;SDS011;4897;43.570;27.832;2023-04-01T12:04:24;6.38;;;2.47;;
9716;SDS011;4897;43.570;27.832;2023-04-01T12:07:08;4.50;;;2.55;;
9716;SDS011;4897;43.570;27.832;2023-04-01T12:09:47;7.90;;;2.90;;
9716;SDS011;4897;43.570;27.832;2023-04-01T12:12:20;9.80;;;2.78;;
9716;SDS011;4897;43.570;27.832;2023-04-01T12:14:59;4.53;;;2.65;;
9716;SDS011;4897;43.570;27.832;2023-04-01T12:17:39;4.93;;;2.58;;
9716;SDS011;4897;43.570;27.832;2023-04-01T12:20:20;4.78;;;2.60;;
9716;SDS011;4897;43.570;27.832;2023-04-01T12:22:54;7.00;;;3.30;;
9716;SDS011;4897;43.570;27.832;2023-04-01T12:28:36;4.05;;;2.40;;
9716;SDS011;4897;43.570;27.832;2023-04-01T12:31:16;6.22;;;3.08;;
9716;SDS011;4897;43.570;27.832;2023-04-01T12:34:05;3.55;;;2.22;;
9716;SDS011;4897;43.570;27.832;2023-04-01T12:36:53;3.80;;;2.15;;
9716;SDS011;4897;43.570;27.832;2023-04-01T12:39:42;6.18;;;2.10;;
9716;SDS011;4897;43.570;27.832;2023-04-01T12:42:21;7.65;;;2.42;;
9716;SDS011;4897;43.570;27.832;2023-04-01T12:45:17;5.95;;;2.42;;
9716;SDS011;4897;43.570;27.832;2023-04-01T12:47:59;6.88;;;2.15;;
9716;SDS011;4897;43.570;27.832;2023-04-01T12:50:51;5.00;;;2.20;;
9716;SDS011;4897;43.570;27.832;2023-04-01T12:53:37;5.43;;;2.75;;
9716;SDS011;4897;43.570;27.832;2023-04-01T12:56:14;3.85;;;2.13;;
9716;SDS011;4897;43.570;27.832;2023-04-01T12:59:00;5.00;;;2.33;;
9716;SDS011;4897;43.570;27.832;2023-04-01T13:07:58;4.50;;;2.70;;
9716;SDS011;4897;43.570;27.832;2023-04-01T13:10:43;6.00;;;2.47;;
9716;SDS011;4897;43.570;27.832;2023-04-01T13:13:39;6.65;;;2.95;;
9716;SDS011;4897;43.570;27.832;2023-04-01T13:16:17;9.75;;;2.60;;
9716;SDS011;4897;43.570;27.832;2023-04-01T13:18:54;3.78;;;2.42;;
9716;SDS011;4897;43.570;27.832;2023-04-01T13:21:42;10.60;;;2.80;;
9716;SDS011;4897;43.570;27.832;2023-04-01T13:24:22;5.78;;;2.78;;
9716;SDS011;4897;43.570;27.832;2023-04-01T13:26:58;6.45;;;2.83;;
9716;SDS011;4897;43.570;27.832;2023-04-01T13:29:29;8.02;;;3.20;;
9716;SDS011;4897;43.570;27.832;2023-04-01T13:32:06;13.30;;;4.10;;
9716;SDS011;4897;43.570;27.832;2023-04-01T13:34:48;7.38;;;3.63;;
9716;SDS011;4897;43.570;27.832;2023-04-01T13:37:32;6.32;;;3.10;;
9716;SDS011;4897;43.570;27.832;2023-04-01T13:40:20;8.63;;;3.53;;
9716;SDS011;4897;43.570;27.832;2023-04-01T13:43:01;9.38;;;2.85;;
9716;SDS011;4897;43.570;27.832;2023-04-01T13:45:33;6.07;;;2.90;;
9716;SDS011;4897;43.570;27.832;2023-04-01T13:48:15;11.57;;;3.30;;
9716;SDS011;4897;43.570;27.832;2023-04-01T13:51:00;4.40;;;2.60;;
9716;SDS011;4897;43.570;27.832;2023-04-01T13:56:57;7.40;;;4.10;;
9716;SDS011;4897;43.570;27.832;2023-04-01T13:59:39;6.55;;;3.65;;
9716;SDS011;4897;43.570;27.832;2023-04-01T14:02:21;7.63;;;2.70;;
9716;SDS011;4897;43.570;27.832;2023-04-01T14:05:11;5.18;;;2.65;;
9716;SDS011;4897;43.570;27.832;2023-04-01T14:07:56;5.38;;;2.42;;
9716;SDS011;4897;43.570;27.832;2023-04-01T14:10:31;6.22;;;2.60;;
9716;SDS011;4897;43.570;27.832;2023-04-01T14:13:09;4.28;;;2.30;;
9716;SDS011;4897;43.570;27.832;2023-04-01T14:15:50;3.80;;;2.30;;
9716;SDS011;4897;43.570;27.832;2023-04-01T14:21:33;6.60;;;2.55;;
9716;SDS011;4897;43.570;27.832;2023-04-01T14:24:27;7.93;;;2.92;;
9716;SDS011;4897;43.570;27.832;2023-04-01T14:27:09;7.65;;;2.53;;
9716;SDS011;4897;43.570;27.832;2023-04-01T14:32:49;4.05;;;2.40;;
9716;SDS011;4897;43.570;27.832;2023-04-01T14:35:25;4.97;;;2.75;;
9716;SDS011;4897;43.570;27.832;2023-04-01T14:41:16;6.18;;;3.00;;
9716;SDS011;4897;43.570;27.832;2023-04-01T14:43:58;5.55;;;2.70;;
9716;SDS011;4897;43.570;27.832;2023-04-01T14:50:05;11.07;;;3.78;;
9716;SDS011;4897;43.570;27.832;2023-04-01T14:52:40;15.07;;;4.95;;
9716;SDS011;4897;43.570;27.832;2023-04-01T14:55:17;8.50;;;4.72;;
9716;SDS011;4897;43.570;27.832;2023-04-01T14:57:59;10.27;;;3.90;;
9716;SDS011;4897;43.570;27.832;2023-04-01T15:00:50;9.10;;;4.65;;
9716;SDS011;4897;43.570;27.832;2023-04-01T15:03:26;11.02;;;4.25;;
9716;SDS011;4897;43.570;27.832;2023-04-01T15:06:08;9.43;;;4.78;;
9716;SDS011;4897;43.570;27.832;2023-04-01T15:08:58;14.90;;;4.63;;
9716;SDS011;4897;43.570;27.832;2023-04-01T15:11:37;17.30;;;7.43;;
9716;SDS011;4897;43.570;27.832;2023-04-01T15:14:24;12.10;;;6.43;;
9716;SDS011;4897;43.570;27.832;2023-04-01T15:17:06;20.10;;;8.50;;
9716;SDS011;4897;43.570;27.832;2023-04-01T15:19:50;15.68;;;6.80;;
9716;SDS011;4897;43.570;27.832;2023-04-01T15:22:41;12.98;;;6.38;;
9716;SDS011;4897;43.570;27.832;2023-04-01T15:25:25;22.80;;;11.27;;
9716;SDS011;4897;43.570;27.832;2023-04-01T15:28:05;16.30;;;9.15;;
9716;SDS011;4897;43.570;27.832;2023-04-01T15:30:38;19.48;;;10.60;;
9716;SDS011;4897;43.570;27.832;2023-04-01T15:33:34;21.70;;;9.80;;
9716;SDS011;4897;43.570;27.832;2023-04-01T15:36:13;16.23;;;7.40;;
9716;SDS011;4897;43.570;27.832;2023-04-01T15:38:52;19.92;;;7.47;;
9716;SDS011;4897;43.570;27.832;2023-04-01T15:41:27;21.05;;;8.55;;
9716;SDS011;4897;43.570;27.832;2023-04-01T15:44:02;16.58;;;6.60;;
9716;SDS011;4897;43.570;27.832;2023-04-01T15:46:43;11.80;;;6.07;;
9716;SDS011;4897;43.570;27.832;2023-04-01T15:49:19;11.60;;;5.20;;
9716;SDS011;4897;43.570;27.832;2023-04-01T15:52:08;13.13;;;5.95;;
9716;SDS011;4897;43.570;27.832;2023-04-01T15:54:48;10.63;;;5.55;;
9716;SDS011;4897;43.570;27.832;2023-04-01T15:57:25;11.32;;;5.20;;
9716;SDS011;4897;43.570;27.832;2023-04-01T16:00:14;15.57;;;5.88;;
9716;SDS011;4897;43.570;27.832;2023-04-01T16:02:51;11.80;;;6.38;;
9716;SDS011;4897;43.570;27.832;2023-04-01T16:05:37;11.60;;;5.85;;
9716;SDS011;4897;43.570;27.832;2023-04-01T16:08:22;15.85;;;6.30;;
9716;SDS011;4897;43.570;27.832;2023-04-01T16:11:15;15.15;;;7.10;;
9716;SDS011;4897;43.570;27.832;2023-04-01T16:13:55;18.85;;;6.32;;
9716;SDS011;4897;43.570;27.832;2023-04-01T16:16:35;13.48;;;7.28;;
9716;SDS011;4897;43.570;27.832;2023-04-01T16:19:17;14.18;;;6.82;;
9716;SDS011;4897;43.570;27.832;2023-04-01T16:22:01;22.25;;;6.47;;
9716;SDS011;4897;43.570;27.832;2023-04-01T16:24:35;13.30;;;7.15;;
9716;SDS011;4897;43.570;27.832;2023-04-01T16:27:11;16.08;;;5.57;;
9716;SDS011;4897;43.570;27.832;2023-04-01T16:29:46;11.82;;;5.47;;
9716;SDS011;4897;43.570;27.832;2023-04-01T16:32:21;15.70;;;5.85;;
9716;SDS011;4897;43.570;27.832;2023-04-01T16:35:10;15.63;;;6.40;;
9716;SDS011;4897;43.570;27.832;2023-04-01T16:37:50;14.02;;;6.43;;
9716;SDS011;4897;43.570;27.832;2023-04-01T16:40:23;17.65;;;6.30;;
9716;SDS011;4897;43.570;27.832;2023-04-01T16:43:06;13.80;;;5.30;;
9716;SDS011;4897;43.570;27.832;2023-04-01T16:45:51;11.65;;;4.97;;
9716;SDS011;4897;43.570;27.832;2023-04-01T16:48:27;9.88;;;4.70;;
9716;SDS011;4897;43.570;27.832;2023-04-01T16:51:02;13.52;;;4.82;;
9716;SDS011;4897;43.570;27.832;2023-04-01T16:53:37;10.98;;;4.78;;
9716;SDS011;4897;43.570;27.832;2023-04-01T16:56:10;13.98;;;5.28;;
9716;SDS011;4897;43.570;27.832;2023-04-01T16:58:41;16.38;;;5.97;;
9716;SDS011;4897;43.570;27.832;2023-04-01T17:01:16;20.60;;;6.53;;
9716;SDS011;4897;43.570;27.832;2023-04-01T17:03:49;25.92;;;6.15;;
9716;SDS011;4897;43.570;27.832;2023-04-01T17:06:21;13.40;;;6.03;;
9716;SDS011;4897;43.570;27.832;2023-04-01T17:11:54;16.85;;;5.22;;
9716;SDS011;4897;43.570;27.832;2023-04-01T17:14:30;14.13;;;6.07;;
9716;SDS011;4897;43.570;27.832;2023-04-01T17:17:16;15.13;;;6.03;;
9716;SDS011;4897;43.570;27.832;2023-04-01T17:20:04;14.38;;;5.30;;
9716;SDS011;4897;43.570;27.832;2023-04-01T17:22:43;14.45;;;5.20;;
9716;SDS011;4897;43.570;27.832;2023-04-01T17:25:30;11.43;;;4.82;;
9716;SDS011;4897;43.570;27.832;2023-04-01T17:28:10;16.63;;;5.35;;